sensor_id;sensor_type;location;lat;lon;timestamp;temperature;humidity
46085;DHT22;31823;47.032;8.310;2023-01-24T00:00:10;-1.60;99.90
46085;DHT22;31823;47.032;8.310;2023-01-24T00:02:36;-1.60;99.90
46085;DHT22;31823;47.032;8.310;2023-01-24T00:05:02;-1.60;99.90
46085;DHT22;31823;47.032;8.310;2023-01-24T00:07:28;-1.70;99.90
46085;DHT22;31823;47.032;8.310;2023-01-24T00:09:53;-1.70;99.90
46085;DHT22;31823;47.032;8.310;2023-01-24T00:12:19;-1.70;99.90
46085;DHT22;31823;47.032;8.310;2023-01-24T00:14:44;-1.80;99.90
46085;DHT22;31823;47.032;8.310;2023-01-24T00:17:10;-1.90;99.90
46085;DHT22;31823;47.032;8.310;2023-01-24T00:19:35;-1.90;99.90
46085;DHT22;31823;47.032;8.310;2023-01-24T00:22:02;-2.00;99.90
46085;DHT22;31823;47.032;8.310;2023-01-24T00:24:28;-2.10;99.90
46085;DHT22;31823;47.032;8.310;2023-01-24T00:26:55;-2.10;99.90
46085;DHT22;31823;47.032;8.310;2023-01-24T00:29:21;-2.10;99.90
46085;DHT22;31823;47.032;8.310;2023-01-24T00:31:46;-2.10;99.90
46085;DHT22;31823;47.032;8.310;2023-01-24T00:34:12;-2.00;99.90
46085;DHT22;31823;47.032;8.310;2023-01-24T00:36:37;-2.00;99.90
46085;DHT22;31823;47.032;8.310;2023-01-24T00:39:03;-2.10;99.90
46085;DHT22;31823;47.032;8.310;2023-01-24T00:41:29;-2.00;99.90
46085;DHT22;31823;47.032;8.310;2023-01-24T00:43:54;-2.00;99.90
46085;DHT22;31823;47.032;8.310;2023-01-24T00:46:20;-2.00;99.90
46085;DHT22;31823;47.032;8.310;2023-01-24T00:48:46;-2.00;99.90
46085;DHT22;31823;47.032;8.310;2023-01-24T00:51:11;-2.10;99.90
46085;DHT22;31823;47.032;8.310;2023-01-24T00:53:37;-2.10;99.90
46085;DHT22;31823;47.032;8.310;2023-01-24T00:56:03;-2.10;99.90
46085;DHT22;31823;47.032;8.310;2023-01-24T00:58:28;-2.10;99.90
46085;DHT22;31823;47.032;8.310;2023-01-24T01:00:55;-2.20;99.90
46085;DHT22;31823;47.032;8.310;2023-01-24T01:03:21;-2.20;99.90
46085;DHT22;31823;47.032;8.310;2023-01-24T01:05:47;-2.20;99.90
46085;DHT22;31823;47.032;8.310;2023-01-24T01:08:13;-2.20;99.90
46085;DHT22;31823;47.032;8.310;2023-01-24T01:10:39;-2.30;99.90
46085;DHT22;31823;47.032;8.310;2023-01-24T01:13:05;-2.30;99.90
46085;DHT22;31823;47.032;8.310;2023-01-24T01:15:32;-2.30;99.90
46085;DHT22;31823;47.032;8.310;2023-01-24T01:17:58;-2.30;99.90
46085;DHT22;31823;47.032;8.310;2023-01-24T01:20:24;-2.40;99.90
46085;DHT22;31823;47.032;8.310;2023-01-24T01:22:50;-2.40;99.90
46085;DHT22;31823;47.032;8.310;2023-01-24T01:25:16;-2.40;99.90
46085;DHT22;31823;47.032;8.310;2023-01-24T01:27:41;-2.40;99.90
46085;DHT22;31823;47.032;8.310;2023-01-24T01:30:07;-2.40;99.90
46085;DHT22;31823;47.032;8.310;2023-01-24T01:32:33;-2.40;99.90
46085;DHT22;31823;47.032;8.310;2023-01-24T01:34:59;-2.40;99.90
46085;DHT22;31823;47.032;8.310;2023-01-24T01:37:24;-2.40;99.90
46085;DHT22;31823;47.032;8.310;2023-01-24T01:39:50;-2.40;99.90
46085;DHT22;31823;47.032;8.310;2023-01-24T01:42:16;-2.30;99.90
46085;DHT22;31823;47.032;8.310;2023-01-24T01:44:42;-2.20;99.90
46085;DHT22;31823;47.032;8.310;2023-01-24T01:47:34;-2.20;99.90
46085;DHT22;31823;47.032;8.310;2023-01-24T01:50:42;-2.20;99.90
46085;DHT22;31823;47.032;8.310;2023-01-24T01:53:06;-2.20;99.90
46085;DHT22;31823;47.032;8.310;2023-01-24T01:55:33;-2.10;99.90
46085;DHT22;31823;47.032;8.310;2023-01-24T01:58:02;-2.10;99.90
46085;DHT22;31823;47.032;8.310;2023-01-24T02:00:28;-2.20;99.90
46085;DHT22;31823;47.032;8.310;2023-01-24T02:02:59;-2.20;99.90
46085;DHT22;31823;47.032;8.310;2023-01-24T02:05:47;-2.30;99.90
46085;DHT22;31823;47.032;8.310;2023-01-24T02:08:18;-2.40;99.90
46085;DHT22;31823;47.032;8.310;2023-01-24T02:10:45;-2.40;99.90
46085;DHT22;31823;47.032;8.310;2023-01-24T02:13:29;-2.40;99.90
46085;DHT22;31823;47.032;8.310;2023-01-24T02:15:56;-2.30;99.90
46085;DHT22;31823;47.032;8.310;2023-01-24T02:18:29;-2.20;99.90
46085;DHT22;31823;47.032;8.310;2023-01-24T02:20:55;-2.20;99.90
46085;DHT22;31823;47.032;8.310;2023-01-24T02:29:11;-2.10;99.90
46085;DHT22;31823;47.032;8.310;2023-01-24T02:31:57;-2.10;99.90
46085;DHT22;31823;47.032;8.310;2023-01-24T02:34:23;-2.10;99.90
46085;DHT22;31823;47.032;8.310;2023-01-24T02:36:57;-2.10;99.90
46085;DHT22;31823;47.032;8.310;2023-01-24T02:39:30;-2.10;99.90
46085;DHT22;31823;47.032;8.310;2023-01-24T02:42:11;-2.00;99.90
46085;DHT22;31823;47.032;8.310;2023-01-24T02:44:55;-2.00;99.90
46085;DHT22;31823;47.032;8.310;2023-01-24T02:47:24;-2.00;99.90
46085;DHT22;31823;47.032;8.310;2023-01-24T02:49:51;-2.00;99.90
46085;DHT22;31823;47.032;8.310;2023-01-24T02:52:16;-2.00;99.90
46085;DHT22;31823;47.032;8.310;2023-01-24T02:55:02;-2.00;99.90
46085;DHT22;31823;47.032;8.310;2023-01-24T02:57:28;-2.10;99.90
46085;DHT22;31823;47.032;8.310;2023-01-24T03:00:12;-2.20;99.90
46085;DHT22;31823;47.032;8.310;2023-01-24T03:02:38;-2.30;99.90
46085;DHT22;31823;47.032;8.310;2023-01-24T03:05:04;-2.30;99.90
46085;DHT22;31823;47.032;8.310;2023-01-24T03:07:29;-2.40;99.90
46085;DHT22;31823;47.032;8.310;2023-01-24T03:10:10;-2.50;99.90
46085;DHT22;31823;47.032;8.310;2023-01-24T03:12:36;-2.60;99.90
46085;DHT22;31823;47.032;8.310;2023-01-24T03:15:20;-2.60;99.90
46085;DHT22;31823;47.032;8.310;2023-01-24T03:18:05;-2.70;99.90
46085;DHT22;31823;47.032;8.310;2023-01-24T03:20:49;-2.70;99.90
46085;DHT22;31823;47.032;8.310;2023-01-24T03:23:33;-2.80;99.90
46085;DHT22;31823;47.032;8.310;2023-01-24T03:26:17;-2.90;99.90
46085;DHT22;31823;47.032;8.310;2023-01-24T03:29:02;-3.00;99.90
46085;DHT22;31823;47.032;8.310;2023-01-24T03:31:46;-2.90;99.90
46085;DHT22;31823;47.032;8.310;2023-01-24T03:34:30;-3.00;99.90
46085;DHT22;31823;47.032;8.310;2023-01-24T03:37:01;-3.00;99.90
46085;DHT22;31823;47.032;8.310;2023-01-24T03:39:27;-3.10;99.90
46085;DHT22;31823;47.032;8.310;2023-01-24T03:42:11;-3.10;99.90
46085;DHT22;31823;47.032;8.310;2023-01-24T03:44:37;-3.20;99.90
46085;DHT22;31823;47.032;8.310;2023-01-24T03:47:03;-3.20;99.90
46085;DHT22;31823;47.032;8.310;2023-01-24T03:49:28;-3.30;99.90
46085;DHT22;31823;47.032;8.310;2023-01-24T03:52:12;-3.30;99.90
46085;DHT22;31823;47.032;8.310;2023-01-24T03:54:52;-3.30;99.90
46085;DHT22;31823;47.032;8.310;2023-01-24T03:57:17;-3.30;99.90
46085;DHT22;31823;47.032;8.310;2023-01-24T03:59:43;-3.30;99.90
46085;DHT22;31823;47.032;8.310;2023-01-24T04:02:09;-3.40;99.90
46085;DHT22;31823;47.032;8.310;2023-01-24T04:04:34;-3.40;99.90
46085;DHT22;31823;47.032;8.310;2023-01-24T04:07:19;-3.40;99.90
46085;DHT22;31823;47.032;8.310;2023-01-24T04:09:45;-3.30;99.90
46085;DHT22;31823;47.032;8.310;2023-01-24T04:12:10;-3.30;99.90
46085;DHT22;31823;47.032;8.310;2023-01-24T04:14:36;-3.30;99.90
46085;DHT22;31823;47.032;8.310;2023-01-24T04:17:02;-3.30;99.90
46085;DHT22;31823;47.032;8.310;2023-01-24T04:19:27;-3.30;99.90
46085;DHT22;31823;47.032;8.310;2023-01-24T04:21:53;-3.30;99.90
46085;DHT22;31823;47.032;8.310;2023-01-24T04:24:19;-3.30;99.90
46085;DHT22;31823;47.032;8.310;2023-01-24T04:26:44;-3.30;99.90
46085;DHT22;31823;47.032;8.310;2023-01-24T04:29:10;-3.30;99.90
46085;DHT22;31823;47.032;8.310;2023-01-24T04:31:35;-3.30;99.90
46085;DHT22;31823;47.032;8.310;2023-01-24T04:34:01;-3.20;99.90
46085;DHT22;31823;47.032;8.310;2023-01-24T04:36:26;-3.30;99.90
46085;DHT22;31823;47.032;8.310;2023-01-24T04:38:52;-3.30;99.90
46085;DHT22;31823;47.032;8.310;2023-01-24T04:41:17;-3.20;99.90
46085;DHT22;31823;47.032;8.310;2023-01-24T04:43:43;-3.30;99.90
46085;DHT22;31823;47.032;8.310;2023-01-24T04:46:08;-3.20;99.90
46085;DHT22;31823;47.032;8.310;2023-01-24T04:48:34;-3.20;99.90
46085;DHT22;31823;47.032;8.310;2023-01-24T04:51:00;-3.20;99.90
46085;DHT22;31823;47.032;8.310;2023-01-24T04:53:27;-3.20;99.90
46085;DHT22;31823;47.032;8.310;2023-01-24T04:55:54;-3.30;99.90
46085;DHT22;31823;47.032;8.310;2023-01-24T04:58:19;-3.20;99.90
46085;DHT22;31823;47.032;8.310;2023-01-24T05:00:45;-3.20;99.90
46085;DHT22;31823;47.032;8.310;2023-01-24T05:03:13;-3.30;99.90
46085;DHT22;31823;47.032;8.310;2023-01-24T05:05:38;-3.30;99.90
46085;DHT22;31823;47.032;8.310;2023-01-24T05:08:04;-3.20;99.90
46085;DHT22;31823;47.032;8.310;2023-01-24T05:10:29;-3.20;99.90
46085;DHT22;31823;47.032;8.310;2023-01-24T05:12:55;-3.20;99.90
46085;DHT22;31823;47.032;8.310;2023-01-24T05:15:20;-3.20;99.90
46085;DHT22;31823;47.032;8.310;2023-01-24T05:17:48;-3.20;99.90
46085;DHT22;31823;47.032;8.310;2023-01-24T05:20:13;-3.10;99.90
46085;DHT22;31823;47.032;8.310;2023-01-24T05:22:39;-3.00;99.90
46085;DHT22;31823;47.032;8.310;2023-01-24T05:25:05;-2.90;99.90
46085;DHT22;31823;47.032;8.310;2023-01-24T05:27:31;-2.90;99.90
46085;DHT22;31823;47.032;8.310;2023-01-24T05:29:56;-2.90;99.90
46085;DHT22;31823;47.032;8.310;2023-01-24T05:32:22;-2.90;99.90
46085;DHT22;31823;47.032;8.310;2023-01-24T05:34:47;-2.90;99.90
46085;DHT22;31823;47.032;8.310;2023-01-24T05:37:13;-2.90;99.90
46085;DHT22;31823;47.032;8.310;2023-01-24T05:39:38;-2.80;99.90
46085;DHT22;31823;47.032;8.310;2023-01-24T05:42:04;-2.80;99.90
46085;DHT22;31823;47.032;8.310;2023-01-24T05:44:30;-2.80;99.90
46085;DHT22;31823;47.032;8.310;2023-01-24T05:46:55;-2.80;99.90
46085;DHT22;31823;47.032;8.310;2023-01-24T05:49:21;-2.80;99.90
46085;DHT22;31823;47.032;8.310;2023-01-24T05:51:46;-2.90;99.90
46085;DHT22;31823;47.032;8.310;2023-01-24T05:54:12;-2.80;99.90
46085;DHT22;31823;47.032;8.310;2023-01-24T05:56:37;-2.90;99.90
46085;DHT22;31823;47.032;8.310;2023-01-24T05:59:03;-2.90;99.90
46085;DHT22;31823;47.032;8.310;2023-01-24T06:01:28;-3.00;99.90
46085;DHT22;31823;47.032;8.310;2023-01-24T06:03:54;-3.00;99.90
46085;DHT22;31823;47.032;8.310;2023-01-24T06:06:22;-3.00;99.90
46085;DHT22;31823;47.032;8.310;2023-01-24T06:08:48;-3.00;99.90
46085;DHT22;31823;47.032;8.310;2023-01-24T06:11:15;-3.10;99.90
46085;DHT22;31823;47.032;8.310;2023-01-24T06:13:41;-3.10;99.90
46085;DHT22;31823;47.032;8.310;2023-01-24T06:16:13;-3.20;99.90
46085;DHT22;31823;47.032;8.310;2023-01-24T06:18:39;-3.30;99.90
46085;DHT22;31823;47.032;8.310;2023-01-24T06:21:08;-3.40;99.90
46085;DHT22;31823;47.032;8.310;2023-01-24T06:23:34;-3.40;99.90
46085;DHT22;31823;47.032;8.310;2023-01-24T06:26:00;-3.40;99.90
46085;DHT22;31823;47.032;8.310;2023-01-24T06:28:26;-3.40;99.90
46085;DHT22;31823;47.032;8.310;2023-01-24T06:38:36;-3.50;99.90
46085;DHT22;31823;47.032;8.310;2023-01-24T06:41:12;-3.50;99.90
46085;DHT22;31823;47.032;8.310;2023-01-24T06:43:38;-3.60;99.90
46085;DHT22;31823;47.032;8.310;2023-01-24T06:46:04;-3.60;99.90
46085;DHT22;31823;47.032;8.310;2023-01-24T06:48:30;-3.60;99.90
46085;DHT22;31823;47.032;8.310;2023-01-24T06:50:55;-3.70;99.90
46085;DHT22;31823;47.032;8.310;2023-01-24T06:53:21;-3.70;99.90
46085;DHT22;31823;47.032;8.310;2023-01-24T06:55:46;-3.70;99.90
46085;DHT22;31823;47.032;8.310;2023-01-24T06:58:12;-3.70;99.90
46085;DHT22;31823;47.032;8.310;2023-01-24T07:00:38;-3.70;99.90
46085;DHT22;31823;47.032;8.310;2023-01-24T07:03:05;-3.70;99.90
46085;DHT22;31823;47.032;8.310;2023-01-24T07:05:32;-3.70;99.90
46085;DHT22;31823;47.032;8.310;2023-01-24T07:07:58;-3.70;99.90
46085;DHT22;31823;47.032;8.310;2023-01-24T07:10:25;-3.70;99.90
46085;DHT22;31823;47.032;8.310;2023-01-24T07:12:50;-3.80;99.90
46085;DHT22;31823;47.032;8.310;2023-01-24T07:15:16;-3.80;99.90
46085;DHT22;31823;47.032;8.310;2023-01-24T07:17:42;-3.80;99.90
46085;DHT22;31823;47.032;8.310;2023-01-24T07:20:09;-3.80;99.90
46085;DHT22;31823;47.032;8.310;2023-01-24T07:22:37;-3.80;99.90
46085;DHT22;31823;47.032;8.310;2023-01-24T07:25:04;-3.80;99.90
46085;DHT22;31823;47.032;8.310;2023-01-24T07:27:30;-3.80;99.90
46085;DHT22;31823;47.032;8.310;2023-01-24T07:29:56;-3.80;99.90
46085;DHT22;31823;47.032;8.310;2023-01-24T07:32:21;-3.80;99.90
46085;DHT22;31823;47.032;8.310;2023-01-24T07:34:47;-3.70;99.90
46085;DHT22;31823;47.032;8.310;2023-01-24T07:37:12;-3.70;99.90
46085;DHT22;31823;47.032;8.310;2023-01-24T07:39:38;-3.70;99.90
46085;DHT22;31823;47.032;8.310;2023-01-24T07:42:03;-3.70;99.90
46085;DHT22;31823;47.032;8.310;2023-01-24T07:44:29;-3.60;99.90
46085;DHT22;31823;47.032;8.310;2023-01-24T07:46:54;-3.60;99.90
46085;DHT22;31823;47.032;8.310;2023-01-24T07:49:20;-3.60;99.90
46085;DHT22;31823;47.032;8.310;2023-01-24T07:51:46;-3.60;99.90
46085;DHT22;31823;47.032;8.310;2023-01-24T07:54:13;-3.50;99.90
46085;DHT22;31823;47.032;8.310;2023-01-24T07:56:39;-3.50;99.90
46085;DHT22;31823;47.032;8.310;2023-01-24T07:59:05;-3.40;99.90
46085;DHT22;31823;47.032;8.310;2023-01-24T08:01:31;-3.30;99.90
46085;DHT22;31823;47.032;8.310;2023-01-24T08:03:57;-3.30;99.90
46085;DHT22;31823;47.032;8.310;2023-01-24T08:06:23;-3.30;99.90
46085;DHT22;31823;47.032;8.310;2023-01-24T08:08:49;-3.30;99.90
46085;DHT22;31823;47.032;8.310;2023-01-24T08:11:14;-3.30;99.90
46085;DHT22;31823;47.032;8.310;2023-01-24T08:13:45;-3.20;99.90
46085;DHT22;31823;47.032;8.310;2023-01-24T08:16:11;-3.20;99.90
46085;DHT22;31823;47.032;8.310;2023-01-24T08:18:37;-3.20;99.90
46085;DHT22;31823;47.032;8.310;2023-01-24T08:21:03;-3.00;99.90
46085;DHT22;31823;47.032;8.310;2023-01-24T08:23:29;-3.00;99.90
46085;DHT22;31823;47.032;8.310;2023-01-24T08:25:57;-3.00;99.90
46085;DHT22;31823;47.032;8.310;2023-01-24T08:28:23;-3.00;99.90
46085;DHT22;31823;47.032;8.310;2023-01-24T08:30:49;-2.90;99.90
46085;DHT22;31823;47.032;8.310;2023-01-24T08:33:14;-2.80;99.90
46085;DHT22;31823;47.032;8.310;2023-01-24T08:35:44;-2.70;99.90
46085;DHT22;31823;47.032;8.310;2023-01-24T08:38:14;-2.70;99.90
46085;DHT22;31823;47.032;8.310;2023-01-24T08:40:40;-2.60;99.90
46085;DHT22;31823;47.032;8.310;2023-01-24T08:43:06;-2.50;99.90
46085;DHT22;31823;47.032;8.310;2023-01-24T08:45:32;-2.40;99.90
46085;DHT22;31823;47.032;8.310;2023-01-24T08:47:58;-2.30;99.90
46085;DHT22;31823;47.032;8.310;2023-01-24T08:50:24;-2.10;99.90
46085;DHT22;31823;47.032;8.310;2023-01-24T08:52:53;-1.90;99.90
46085;DHT22;31823;47.032;8.310;2023-01-24T08:55:19;-1.80;99.90
46085;DHT22;31823;47.032;8.310;2023-01-24T08:57:45;-1.70;99.90
46085;DHT22;31823;47.032;8.310;2023-01-24T09:00:11;-1.50;99.90
46085;DHT22;31823;47.032;8.310;2023-01-24T09:02:37;-1.50;99.90
46085;DHT22;31823;47.032;8.310;2023-01-24T09:05:05;-1.40;99.90
46085;DHT22;31823;47.032;8.310;2023-01-24T09:07:31;-1.30;99.90
46085;DHT22;31823;47.032;8.310;2023-01-24T09:09:56;-1.10;99.90
46085;DHT22;31823;47.032;8.310;2023-01-24T09:12:22;-1.00;99.90
46085;DHT22;31823;47.032;8.310;2023-01-24T09:14:47;-0.90;99.90
46085;DHT22;31823;47.032;8.310;2023-01-24T09:17:13;-0.70;99.90
46085;DHT22;31823;47.032;8.310;2023-01-24T09:19:38;-0.80;99.90
46085;DHT22;31823;47.032;8.310;2023-01-24T09:22:04;-0.60;99.90
46085;DHT22;31823;47.032;8.310;2023-01-24T09:24:29;-0.50;99.90
46085;DHT22;31823;47.032;8.310;2023-01-24T09:26:55;-0.50;99.90
46085;DHT22;31823;47.032;8.310;2023-01-24T09:29:20;-0.60;99.90
46085;DHT22;31823;47.032;8.310;2023-01-24T09:31:47;-0.70;99.90
46085;DHT22;31823;47.032;8.310;2023-01-24T09:34:13;-0.70;99.90
46085;DHT22;31823;47.032;8.310;2023-01-24T09:36:39;-0.50;99.90
46085;DHT22;31823;47.032;8.310;2023-01-24T09:39:04;-0.30;99.90
46085;DHT22;31823;47.032;8.310;2023-01-24T09:42:06;0.10;99.90
46085;DHT22;31823;47.032;8.310;2023-01-24T09:45:31;1.00;99.90
46085;DHT22;31823;47.032;8.310;2023-01-24T09:48:02;0.60;99.90
46085;DHT22;31823;47.032;8.310;2023-01-24T09:52:56;-0.10;99.90
46085;DHT22;31823;47.032;8.310;2023-01-24T09:55:32;0.00;99.90
46085;DHT22;31823;47.032;8.310;2023-01-24T10:00:44;0.10;99.90
46085;DHT22;31823;47.032;8.310;2023-01-24T10:03:17;0.00;99.90
46085;DHT22;31823;47.032;8.310;2023-01-24T10:05:47;0.10;99.90
46085;DHT22;31823;47.032;8.310;2023-01-24T10:22:18;-0.10;99.90
46085;DHT22;31823;47.032;8.310;2023-01-24T10:25:12;-0.40;99.90
46085;DHT22;31823;47.032;8.310;2023-01-24T10:27:57;-0.30;99.90
46085;DHT22;31823;47.032;8.310;2023-01-24T10:30:34;-0.30;99.90
46085;DHT22;31823;47.032;8.310;2023-01-24T10:33:03;-0.20;99.90
46085;DHT22;31823;47.032;8.310;2023-01-24T10:35:39;-0.20;99.90
46085;DHT22;31823;47.032;8.310;2023-01-24T10:38:08;-0.10;99.90
46085;DHT22;31823;47.032;8.310;2023-01-24T10:40:49;0.20;99.90
46085;DHT22;31823;47.032;8.310;2023-01-24T10:43:14;0.50;99.90
46085;DHT22;31823;47.032;8.310;2023-01-24T10:46:10;0.50;99.90
46085;DHT22;31823;47.032;8.310;2023-01-24T10:48:44;0.40;99.90
46085;DHT22;31823;47.032;8.310;2023-01-24T10:51:18;0.30;99.90
46085;DHT22;31823;47.032;8.310;2023-01-24T10:53:45;0.20;99.90
46085;DHT22;31823;47.032;8.310;2023-01-24T10:56:12;0.30;99.90
46085;DHT22;31823;47.032;8.310;2023-01-24T10:58:59;0.50;99.90
46085;DHT22;31823;47.032;8.310;2023-01-24T11:01:37;0.90;99.90
46085;DHT22;31823;47.032;8.310;2023-01-24T11:04:26;1.20;99.90
46085;DHT22;31823;47.032;8.310;2023-01-24T11:06:52;1.30;99.90
46085;DHT22;31823;47.032;8.310;2023-01-24T11:09:20;2.70;99.90
46085;DHT22;31823;47.032;8.310;2023-01-24T11:11:49;3.40;99.90
46085;DHT22;31823;47.032;8.310;2023-01-24T11:14:24;5.70;99.90
46085;DHT22;31823;47.032;8.310;2023-01-24T11:16:53;6.80;99.90
46085;DHT22;31823;47.032;8.310;2023-01-24T11:19:26;8.20;97.00
46085;DHT22;31823;47.032;8.310;2023-01-24T11:22:01;7.90;97.00
46085;DHT22;31823;47.032;8.310;2023-01-24T11:24:27;8.40;96.40
46085;DHT22;31823;47.032;8.310;2023-01-24T11:27:11;8.50;95.10
46085;DHT22;31823;47.032;8.310;2023-01-24T11:29:38;8.30;95.40
46085;DHT22;31823;47.032;8.310;2023-01-24T11:40:48;6.40;97.20
46085;DHT22;31823;47.032;8.310;2023-01-24T11:49:05;5.70;99.40
46085;DHT22;31823;47.032;8.310;2023-01-24T11:54:30;4.20;99.90
46085;DHT22;31823;47.032;8.310;2023-01-24T11:57:02;3.80;99.90
46085;DHT22;31823;47.032;8.310;2023-01-24T12:02:18;4.50;99.60
46085;DHT22;31823;47.032;8.310;2023-01-24T12:12:49;2.50;99.90
46085;DHT22;31823;47.032;8.310;2023-01-24T12:18:53;2.10;99.90
46085;DHT22;31823;47.032;8.310;2023-01-24T12:21:26;1.70;99.90
46085;DHT22;31823;47.032;8.310;2023-01-24T12:24:07;1.50;99.90
46085;DHT22;31823;47.032;8.310;2023-01-24T12:30:06;1.80;99.90
46085;DHT22;31823;47.032;8.310;2023-01-24T12:35:04;1.50;99.90
46085;DHT22;31823;47.032;8.310;2023-01-24T12:40:52;1.40;99.90
46085;DHT22;31823;47.032;8.310;2023-01-24T12:54:17;1.40;99.90
46085;DHT22;31823;47.032;8.310;2023-01-24T12:56:54;1.80;99.90
46085;DHT22;31823;47.032;8.310;2023-01-24T12:59:26;1.70;99.90
46085;DHT22;31823;47.032;8.310;2023-01-24T13:04:54;1.60;99.90
46085;DHT22;31823;47.032;8.310;2023-01-24T13:10:43;1.60;99.90
46085;DHT22;31823;47.032;8.310;2023-01-24T13:13:26;1.80;99.90
46085;DHT22;31823;47.032;8.310;2023-01-24T13:21:55;2.30;99.90
46085;DHT22;31823;47.032;8.310;2023-01-24T13:24:37;2.20;99.90
46085;DHT22;31823;47.032;8.310;2023-01-24T13:32:24;2.00;99.90
46085;DHT22;31823;47.032;8.310;2023-01-24T13:34:53;2.10;99.90
46085;DHT22;31823;47.032;8.310;2023-01-24T13:37:23;2.20;99.90
46085;DHT22;31823;47.032;8.310;2023-01-24T13:42:36;2.00;99.90
46085;DHT22;31823;47.032;8.310;2023-01-24T13:47:46;2.30;99.90
46085;DHT22;31823;47.032;8.310;2023-01-24T13:50:14;2.10;99.90
46085;DHT22;31823;47.032;8.310;2023-01-24T13:52:46;2.00;99.90
46085;DHT22;31823;47.032;8.310;2023-01-24T13:58:32;2.00;99.90
46085;DHT22;31823;47.032;8.310;2023-01-24T14:00:57;2.10;99.90
46085;DHT22;31823;47.032;8.310;2023-01-24T14:03:32;1.90;99.90
46085;DHT22;31823;47.032;8.310;2023-01-24T14:22:20;1.70;99.90
46085;DHT22;31823;47.032;8.310;2023-01-24T14:25:01;1.50;99.90
46085;DHT22;31823;47.032;8.310;2023-01-24T14:27:35;1.40;99.90
46085;DHT22;31823;47.032;8.310;2023-01-24T14:32:47;1.50;99.90
46085;DHT22;31823;47.032;8.310;2023-01-24T14:35:25;1.50;99.90
46085;DHT22;31823;47.032;8.310;2023-01-24T14:37:52;1.50;99.90
46085;DHT22;31823;47.032;8.310;2023-01-24T14:40:27;1.50;99.90
46085;DHT22;31823;47.032;8.310;2023-01-24T14:43:04;1.50;99.90
46085;DHT22;31823;47.032;8.310;2023-01-24T14:45:33;1.50;99.90
46085;DHT22;31823;47.032;8.310;2023-01-24T14:48:01;1.50;99.90
46085;DHT22;31823;47.032;8.310;2023-01-24T14:50:32;1.30;99.90
46085;DHT22;31823;47.032;8.310;2023-01-24T14:53:00;1.20;99.90
46085;DHT22;31823;47.032;8.310;2023-01-24T14:57:51;1.20;99.90
46085;DHT22;31823;47.032;8.310;2023-01-24T15:00:18;1.20;99.90
46085;DHT22;31823;47.032;8.310;2023-01-24T15:03:01;1.20;99.90
46085;DHT22;31823;47.032;8.310;2023-01-24T15:05:36;1.00;99.90
46085;DHT22;31823;47.032;8.310;2023-01-24T15:08:04;1.20;99.90
46085;DHT22;31823;47.032;8.310;2023-01-24T15:10:34;1.00;99.90
46085;DHT22;31823;47.032;8.310;2023-01-24T15:13:03;1.00;99.90
46085;DHT22;31823;47.032;8.310;2023-01-24T15:15:29;0.90;99.90
46085;DHT22;31823;47.032;8.310;2023-01-24T15:18:00;1.10;99.90
46085;DHT22;31823;47.032;8.310;2023-01-24T15:20:26;1.10;99.90
46085;DHT22;31823;47.032;8.310;2023-01-24T15:22:54;1.00;99.90
46085;DHT22;31823;47.032;8.310;2023-01-24T15:25:27;0.90;99.90
46085;DHT22;31823;47.032;8.310;2023-01-24T15:27:55;0.80;99.90
46085;DHT22;31823;47.032;8.310;2023-01-24T15:32:49;0.70;99.90
46085;DHT22;31823;47.032;8.310;2023-01-24T15:35:31;0.90;99.90
46085;DHT22;31823;47.032;8.310;2023-01-24T15:40:32;0.90;99.90
46085;DHT22;31823;47.032;8.310;2023-01-24T15:42:59;0.80;99.90
46085;DHT22;31823;47.032;8.310;2023-01-24T15:45:54;0.80;99.90
46085;DHT22;31823;47.032;8.310;2023-01-24T15:48:55;0.70;99.90
46085;DHT22;31823;47.032;8.310;2023-01-24T15:51:36;0.60;99.90
46085;DHT22;31823;47.032;8.310;2023-01-24T15:54:11;0.60;99.90
46085;DHT22;31823;47.032;8.310;2023-01-24T15:56:38;0.60;99.90
46085;DHT22;31823;47.032;8.310;2023-01-24T15:59:14;0.60;99.90
46085;DHT22;31823;47.032;8.310;2023-01-24T16:01:40;0.50;99.90
46085;DHT22;31823;47.032;8.310;2023-01-24T16:04:14;0.50;99.90
46085;DHT22;31823;47.032;8.310;2023-01-24T16:06:41;0.50;99.90
46085;DHT22;31823;47.032;8.310;2023-01-24T16:09:08;0.50;99.90
46085;DHT22;31823;47.032;8.310;2023-01-24T16:11:37;0.50;99.90
46085;DHT22;31823;47.032;8.310;2023-01-24T16:14:04;0.40;99.90
46085;DHT22;31823;47.032;8.310;2023-01-24T16:16:30;0.30;99.90
46085;DHT22;31823;47.032;8.310;2023-01-24T16:18:56;0.30;99.90
46085;DHT22;31823;47.032;8.310;2023-01-24T16:21:22;0.30;99.90
46085;DHT22;31823;47.032;8.310;2023-01-24T16:23:48;0.30;99.90
46085;DHT22;31823;47.032;8.310;2023-01-24T16:26:24;0.30;99.90
46085;DHT22;31823;47.032;8.310;2023-01-24T16:28:50;0.20;99.90
46085;DHT22;31823;47.032;8.310;2023-01-24T16:31:16;0.20;99.90
46085;DHT22;31823;47.032;8.310;2023-01-24T16:33:43;0.10;99.90
46085;DHT22;31823;47.032;8.310;2023-01-24T16:36:13;0.10;99.90
46085;DHT22;31823;47.032;8.310;2023-01-24T16:38:42;0.10;99.90
46085;DHT22;31823;47.032;8.310;2023-01-24T16:41:09;0.00;99.90
46085;DHT22;31823;47.032;8.310;2023-01-24T16:43:35;0.00;99.90
46085;DHT22;31823;47.032;8.310;2023-01-24T16:46:01;0.00;99.90
46085;DHT22;31823;47.032;8.310;2023-01-24T16:48:26;0.10;99.90
46085;DHT22;31823;47.032;8.310;2023-01-24T16:50:52;0.10;99.90
46085;DHT22;31823;47.032;8.310;2023-01-24T16:53:17;0.10;99.90
46085;DHT22;31823;47.032;8.310;2023-01-24T16:55:43;0.10;99.90
46085;DHT22;31823;47.032;8.310;2023-01-24T16:58:10;0.10;99.90
46085;DHT22;31823;47.032;8.310;2023-01-24T17:00:37;0.10;99.90
46085;DHT22;31823;47.032;8.310;2023-01-24T17:03:03;0.10;99.90
46085;DHT22;31823;47.032;8.310;2023-01-24T17:05:30;0.10;99.90
46085;DHT22;31823;47.032;8.310;2023-01-24T17:07:56;0.10;99.90
46085;DHT22;31823;47.032;8.310;2023-01-24T17:10:23;0.10;99.90
46085;DHT22;31823;47.032;8.310;2023-01-24T17:12:49;0.10;99.90
46085;DHT22;31823;47.032;8.310;2023-01-24T17:15:15;0.10;99.90
46085;DHT22;31823;47.032;8.310;2023-01-24T17:17:41;0.10;99.90
46085;DHT22;31823;47.032;8.310;2023-01-24T17:20:08;0.10;99.90
46085;DHT22;31823;47.032;8.310;2023-01-24T17:22:36;0.10;99.90
46085;DHT22;31823;47.032;8.310;2023-01-24T17:25:03;0.10;99.90
46085;DHT22;31823;47.032;8.310;2023-01-24T17:27:28;0.10;99.90
46085;DHT22;31823;47.032;8.310;2023-01-24T17:29:55;0.10;99.90
46085;DHT22;31823;47.032;8.310;2023-01-24T17:32:21;0.10;99.90
46085;DHT22;31823;47.032;8.310;2023-01-24T17:34:46;0.30;99.90
46085;DHT22;31823;47.032;8.310;2023-01-24T17:37:12;0.30;99.90
46085;DHT22;31823;47.032;8.310;2023-01-24T17:39:38;0.20;99.90
46085;DHT22;31823;47.032;8.310;2023-01-24T17:42:03;0.10;99.90
46085;DHT22;31823;47.032;8.310;2023-01-24T17:44:29;0.10;99.90
46085;DHT22;31823;47.032;8.310;2023-01-24T17:46:54;0.20;99.90
46085;DHT22;31823;47.032;8.310;2023-01-24T17:49:20;0.20;99.90
46085;DHT22;31823;47.032;8.310;2023-01-24T17:51:45;0.10;99.90
46085;DHT22;31823;47.032;8.310;2023-01-24T17:54:12;0.10;99.90
46085;DHT22;31823;47.032;8.310;2023-01-24T17:56:38;0.10;99.90
46085;DHT22;31823;47.032;8.310;2023-01-24T17:59:04;0.10;99.90
46085;DHT22;31823;47.032;8.310;2023-01-24T18:01:30;0.00;99.90
46085;DHT22;31823;47.032;8.310;2023-01-24T18:03:55;0.00;99.90
46085;DHT22;31823;47.032;8.310;2023-01-24T18:06:21;0.00;99.90